createdAt,value
2019-03-06T00:00:39.256Z,22.62
2019-03-06T00:03:11.235Z,20.05
2019-03-06T00:05:43.003Z,23.25
2019-03-06T00:08:14.034Z,17.35
2019-03-06T00:10:44.356Z,19.57
2019-03-06T00:13:15.087Z,20.77
2019-03-06T00:15:45.651Z,21.10
2019-03-06T00:18:17.986Z,21.93
2019-03-06T00:20:50.971Z,24.07
2019-03-06T00:23:22.621Z,21.48
2019-03-06T00:25:53.663Z,21.02
2019-03-06T00:28:26.242Z,22.52
2019-03-06T00:30:57.315Z,24.67
2019-03-06T00:33:28.733Z,25.43
2019-03-06T00:36:00.546Z,23.10
2019-03-06T00:38:32.019Z,27.00
2019-03-06T00:41:06.971Z,25.43
2019-03-06T00:43:37.311Z,26.45
2019-03-06T00:46:08.026Z,29.77
2019-03-06T00:48:39.898Z,26.77
2019-03-06T00:51:10.862Z,27.45
2019-03-06T00:53:43.360Z,29.12
2019-03-06T00:56:14.137Z,25.88
2019-03-06T00:58:47.330Z,30.43
2019-03-06T01:01:18.682Z,31.87
2019-03-06T01:03:50.132Z,28.23
2019-03-06T01:06:24.340Z,27.75
2019-03-06T01:08:55.176Z,34.95
2019-03-06T01:11:26.726Z,28.92
2019-03-06T01:13:58.185Z,26.82
2019-03-06T01:16:28.602Z,29.67
2019-03-06T01:19:00.155Z,31.90
2019-03-06T01:21:30.678Z,27.77
2019-03-06T01:24:02.229Z,29.50
2019-03-06T01:26:32.552Z,31.60
2019-03-06T01:29:05.128Z,30.68
2019-03-06T01:31:35.763Z,33.15
2019-03-06T01:34:11.815Z,34.40
2019-03-06T01:36:46.440Z,30.85
2019-03-06T01:39:34.274Z,34.40
2019-03-06T01:42:10.331Z,36.80
2019-03-06T01:44:43.215Z,35.00
2019-03-06T01:47:14.822Z,31.90
2019-03-06T01:49:45.807Z,35.73
2019-03-06T01:52:17.051Z,30.57
2019-03-06T01:54:49.316Z,31.00
2019-03-06T01:57:20.875Z,32.65
2019-03-06T01:59:52.318Z,35.65
2019-03-06T02:02:22.541Z,32.40
2019-03-06T02:04:54.090Z,29.45
2019-03-06T02:07:26.257Z,28.45
2019-03-06T02:09:56.991Z,31.77
2019-03-06T02:12:27.241Z,27.52
2019-03-06T02:15:00.359Z,28.55
2019-03-06T02:17:31.135Z,25.52
2019-03-06T02:20:02.873Z,25.57
2019-03-06T02:22:33.107Z,28.30
2019-03-06T02:25:03.949Z,31.87
2019-03-06T02:27:34.376Z,22.02
2019-03-06T02:30:20.355Z,28.55
2019-03-06T02:32:51.199Z,27.02
2019-03-06T02:35:24.349Z,27.32
2019-03-06T02:37:56.553Z,23.52
2019-03-06T02:40:27.902Z,24.02
2019-03-06T02:42:58.737Z,27.27
2019-03-06T02:45:29.774Z,25.70
2019-03-06T02:48:01.020Z,28.62
2019-03-06T02:50:31.956Z,27.13
2019-03-06T02:53:03.451Z,25.65
2019-03-06T02:55:33.835Z,24.98
2019-03-06T02:58:09.076Z,25.35
2019-03-06T03:00:54.444Z,27.60
2019-03-06T03:03:44.327Z,25.75
2019-03-06T03:06:33.349Z,24.57
2019-03-06T03:09:09.038Z,25.48
2019-03-06T03:11:39.472Z,24.60
2019-03-06T03:14:10.396Z,26.12
2019-03-06T03:16:41.230Z,24.87
2019-03-06T03:19:12.477Z,25.15
2019-03-06T03:21:48.639Z,24.98
2019-03-06T03:24:21.638Z,28.17
2019-03-06T03:26:52.464Z,27.10
2019-03-06T03:29:26.575Z,28.32
2019-03-06T03:31:57.517Z,23.87
2019-03-06T03:34:27.836Z,26.10
2019-03-06T03:36:58.459Z,26.35
2019-03-06T03:39:29.176Z,32.10
2019-03-06T03:42:01.975Z,26.12
2019-03-06T03:44:32.198Z,25.35
2019-03-06T03:47:05.588Z,31.55
2019-03-06T03:49:36.624Z,26.90
2019-03-06T03:52:07.772Z,29.10
2019-03-06T03:54:39.525Z,25.68
2019-03-06T03:57:09.951Z,26.57
2019-03-06T03:59:43.137Z,27.48
2019-03-06T04:02:13.467Z,27.07
2019-03-06T04:04:43.998Z,28.85
2019-03-06T04:07:14.834Z,26.23
2019-03-06T04:09:45.664Z,26.35
2019-03-06T04:12:17.525Z,25.85
2019-03-06T04:14:48.355Z,27.82
2019-03-06T04:17:19.700Z,24.75
2019-03-06T04:19:50.331Z,23.83
2019-03-06T04:22:21.574Z,25.00
2019-03-06T04:24:52.316Z,26.45
2019-03-06T04:27:24.670Z,25.70
2019-03-06T04:29:57.037Z,26.05
2019-03-06T04:32:27.626Z,25.57
2019-03-06T04:35:00.355Z,25.17
2019-03-06T04:37:32.514Z,25.62
2019-03-06T04:40:06.522Z,22.58
2019-03-06T04:42:37.770Z,17.73
2019-03-06T04:45:19.131Z,26.12
2019-03-06T04:47:52.336Z,26.40
2019-03-06T04:50:23.068Z,25.85
2019-03-06T04:52:56.672Z,30.90
2019-03-06T04:55:27.817Z,22.98
2019-03-06T04:58:00.930Z,24.70
2019-03-06T05:00:32.762Z,26.90
2019-03-06T05:03:03.085Z,31.57
2019-03-06T05:05:34.738Z,27.10
2019-03-06T05:08:05.781Z,30.55
2019-03-06T05:10:37.184Z,25.52
2019-03-06T05:13:07.962Z,33.83
2019-03-06T05:15:40.332Z,26.17
2019-03-06T05:18:12.290Z,26.55
2019-03-06T05:20:44.359Z,22.13
2019-03-06T05:23:15.368Z,28.30
2019-03-06T05:25:48.830Z,28.17
2019-03-06T05:28:19.057Z,26.60
2019-03-06T05:30:50.051Z,26.23
2019-03-06T05:33:20.781Z,27.73
2019-03-06T05:36:11.479Z,22.13
2019-03-06T05:38:50.820Z,24.43
2019-03-06T05:41:21.293Z,25.62
2019-03-06T05:43:54.445Z,23.98
2019-03-06T05:46:26.435Z,24.00
2019-03-06T05:48:58.492Z,24.35
2019-03-06T05:51:30.662Z,24.15
2019-03-06T05:54:00.961Z,26.07
2019-03-06T05:56:31.677Z,23.02
2019-03-06T05:59:03.641Z,25.15
2019-03-06T06:01:34.373Z,28.32
2019-03-06T06:04:05.617Z,24.02
2019-03-06T06:06:37.188Z,22.70
2019-03-06T06:09:08.004Z,23.30
2019-03-06T06:11:38.941Z,20.55
2019-03-06T06:14:10.898Z,22.05
2019-03-06T06:16:43.200Z,25.60
2019-03-06T06:19:14.049Z,21.23
2019-03-06T06:21:48.933Z,21.57
2019-03-06T06:24:19.565Z,21.85
2019-03-06T06:26:50.504Z,26.90
2019-03-06T06:29:23.184Z,22.37
2019-03-06T06:31:53.402Z,25.48
2019-03-06T06:34:24.547Z,28.65
2019-03-06T06:36:56.710Z,20.82
2019-03-06T06:39:27.286Z,22.48
2019-03-06T06:41:58.123Z,25.97
2019-03-06T06:44:31.703Z,26.75
2019-03-06T06:47:03.948Z,28.07
2019-03-06T06:49:35.393Z,27.58
2019-03-06T06:52:31.625Z,23.83
2019-03-06T06:55:08.964Z,25.37
2019-03-06T06:58:15.989Z,24.43
2019-03-06T07:00:52.450Z,36.42
2019-03-06T07:03:59.438Z,30.40
2019-03-06T07:06:33.259Z,30.77
2019-03-06T07:09:21.902Z,30.33
2019-03-06T07:12:13.459Z,25.90
2019-03-06T07:15:04.220Z,30.40
2019-03-06T07:17:39.423Z,22.67
2019-03-06T07:20:14.700Z,29.20
2019-03-06T07:23:06.116Z,23.87
2019-03-06T07:25:50.370Z,23.47
2019-03-06T07:28:28.879Z,31.45
2019-03-06T07:31:07.611Z,25.23
2019-03-06T07:33:46.016Z,29.98
2019-03-06T07:36:35.686Z,27.58
2019-03-06T07:39:10.830Z,28.98
2019-03-06T07:41:50.057Z,25.62
2019-03-06T07:44:30.269Z,24.27
2019-03-06T07:47:12.101Z,19.82
2019-03-06T07:49:55.658Z,20.55
2019-03-06T07:52:40.704Z,23.00
2019-03-06T07:55:22.540Z,27.07
2019-03-06T07:58:30.812Z,21.85
2019-03-06T08:01:03.596Z,22.40
2019-03-06T08:03:37.392Z,24.55
2019-03-06T08:06:07.925Z,23.00
2019-03-06T08:08:41.566Z,22.95
2019-03-06T08:11:14.578Z,22.80
2019-03-06T08:13:47.257Z,21.57
2019-03-06T08:16:20.133Z,27.00
2019-03-06T08:18:52.645Z,22.67
2019-03-06T08:21:31.981Z,21.20
2019-03-06T08:24:04.461Z,23.50
2019-03-06T08:26:35.910Z,24.37
2019-03-06T08:29:07.320Z,27.60
2019-03-06T08:31:44.750Z,24.32
2019-03-06T08:34:16.497Z,26.65
2019-03-06T08:36:47.553Z,21.10
2019-03-06T08:39:19.847Z,19.70
2019-03-06T08:41:50.331Z,19.25
2019-03-06T08:44:23.418Z,23.95
2019-03-06T08:46:56.092Z,34.73
2019-03-06T08:49:31.542Z,24.20
2019-03-06T08:52:04.932Z,24.23
2019-03-06T08:54:36.901Z,22.63
2019-03-06T08:57:12.556Z,19.23
2019-03-06T08:59:57.189Z,28.40
2019-03-06T09:02:45.239Z,23.00
2019-03-06T09:05:17.932Z,20.85
2019-03-06T09:07:56.242Z,30.62
2019-03-06T09:10:36.486Z,23.77
2019-03-06T09:13:28.340Z,21.10
2019-03-06T09:16:03.349Z,25.20
2019-03-06T09:18:46.983Z,17.62
2019-03-06T09:21:34.979Z,18.07
2019-03-06T09:24:13.455Z,21.50
2019-03-06T09:27:02.799Z,27.13
2019-03-06T09:29:47.759Z,19.10
2019-03-06T09:32:24.823Z,12.98
2019-03-06T09:35:11.684Z,14.10
2019-03-06T09:37:50.742Z,13.75
2019-03-06T09:40:26.712Z,17.82
2019-03-06T09:43:12.417Z,10.58
2019-03-06T09:45:45.549Z,15.78
2019-03-06T09:50:55.022Z,19.95
2019-03-06T09:53:28.516Z,25.08
2019-03-06T09:56:08.346Z,26.30
2019-03-06T09:58:45.870Z,26.60
2019-03-06T10:01:26.879Z,25.23
2019-03-06T10:04:15.019Z,15.25
2019-03-06T10:06:50.351Z,15.68
2019-03-06T10:09:28.671Z,20.00
2019-03-06T10:12:07.036Z,28.83
2019-03-06T10:14:40.178Z,29.82
2019-03-06T10:17:14.475Z,24.43
2019-03-06T10:19:56.702Z,23.60
2019-03-06T10:22:29.780Z,18.62
2019-03-06T10:25:02.259Z,33.63
2019-03-06T10:27:33.897Z,26.00
2019-03-06T10:30:13.550Z,31.57
2019-03-06T10:32:47.044Z,24.00
2019-03-06T10:35:19.622Z,20.05
2019-03-06T10:37:51.059Z,21.77
2019-03-06T10:40:21.404Z,21.73
2019-03-06T10:42:54.892Z,16.57
2019-03-06T10:45:25.723Z,15.08
2019-03-06T10:47:57.170Z,18.05
2019-03-06T10:50:30.094Z,14.40
2019-03-06T10:53:00.888Z,17.37
2019-03-06T10:55:33.057Z,25.15
2019-03-06T10:58:04.513Z,21.12
2019-03-06T11:00:52.341Z,23.62
2019-03-06T11:03:25.014Z,14.53
2019-03-06T11:05:56.266Z,17.40
2019-03-06T11:08:29.388Z,18.50
2019-03-06T11:11:00.694Z,13.40
2019-03-06T11:13:34.563Z,11.18
2019-03-06T11:16:07.372Z,11.12
2019-03-06T11:18:38.529Z,21.00
2019-03-06T11:21:09.876Z,22.87
2019-03-06T11:23:40.913Z,16.15
2019-03-06T11:26:12.977Z,12.58
2019-03-06T11:28:44.218Z,11.08
2019-03-06T11:31:14.754Z,12.37
2019-03-06T11:33:45.344Z,13.70
2019-03-06T11:36:16.123Z,10.58
2019-03-06T11:38:47.661Z,9.93
2019-03-06T11:41:19.527Z,19.80
2019-03-06T11:43:51.484Z,12.07
2019-03-06T11:46:22.116Z,8.43
2019-03-06T11:48:55.166Z,8.25
2019-03-06T11:51:29.717Z,10.20
2019-03-06T11:54:01.544Z,11.57
2019-03-06T11:56:33.236Z,15.72
2019-03-06T11:59:05.908Z,12.63
2019-03-06T12:01:47.202Z,8.43
2019-03-06T12:04:10.345Z,16.77
2019-03-06T12:06:40.876Z,9.55
2019-03-06T12:09:25.866Z,7.30
2019-03-06T12:11:56.192Z,10.60
2019-03-06T12:14:29.313Z,9.60
2019-03-06T12:17:02.675Z,5.47
2019-03-06T12:19:36.962Z,6.42
2019-03-06T12:22:07.616Z,9.98
2019-03-06T12:24:38.479Z,10.28
2019-03-06T12:27:09.270Z,8.60
2019-03-06T12:29:40.510Z,5.30
2019-03-06T12:32:11.447Z,12.88
2019-03-06T12:34:45.956Z,19.35
2019-03-06T12:37:17.449Z,11.10
2019-03-06T12:39:48.353Z,9.75
2019-03-06T12:42:22.006Z,13.32
2019-03-06T12:44:53.203Z,13.22
2019-03-06T12:47:24.462Z,14.20
2019-03-06T12:49:55.694Z,9.83
2019-03-06T12:52:26.217Z,19.62
2019-03-06T12:54:57.161Z,13.85
2019-03-06T12:57:28.201Z,14.50
2019-03-06T13:00:01.181Z,13.70
2019-03-06T13:02:34.618Z,9.70
2019-03-06T13:05:07.078Z,9.70
2019-03-06T13:07:37.472Z,13.08
2019-03-06T13:10:14.493Z,24.98
2019-03-06T13:12:46.219Z,13.45
2019-03-06T13:15:25.228Z,6.10
2019-03-06T13:17:55.986Z,10.20
2019-03-06T13:20:27.038Z,10.55
2019-03-06T13:22:59.530Z,16.25
2019-03-06T13:25:31.550Z,13.83
2019-03-06T13:28:02.278Z,10.63
2019-03-06T13:30:34.352Z,11.20
2019-03-06T13:33:24.549Z,11.18
2019-03-06T13:35:56.947Z,9.50
2019-03-06T13:38:27.841Z,28.70
2019-03-06T13:41:00.740Z,25.73
2019-03-06T13:43:32.175Z,18.40
2019-03-06T13:46:05.019Z,19.20
2019-03-06T13:48:37.331Z,10.98
2019-03-06T13:51:09.965Z,12.37
2019-03-06T13:53:41.043Z,11.50
2019-03-06T13:56:12.803Z,24.20
2019-03-06T13:58:43.530Z,15.80
2019-03-06T14:01:14.676Z,21.57
2019-03-06T14:03:47.718Z,16.75
2019-03-06T14:06:18.087Z,17.67
2019-03-06T14:08:53.165Z,15.30
2019-03-06T14:11:23.962Z,22.13
2019-03-06T14:13:54.687Z,13.28
2019-03-06T14:16:26.647Z,17.77
2019-03-06T14:18:57.687Z,18.57
2019-03-06T14:21:29.506Z,14.05
2019-03-06T14:24:00.326Z,11.40
2019-03-06T14:26:31.114Z,18.57
2019-03-06T14:29:03.178Z,14.05
2019-03-06T14:31:35.024Z,16.43
2019-03-06T14:34:05.777Z,24.82
2019-03-06T14:36:37.427Z,24.55
2019-03-06T14:39:17.490Z,17.25
2019-03-06T14:41:49.073Z,21.35
2019-03-06T14:44:21.295Z,13.05
2019-03-06T14:46:53.362Z,13.23
2019-03-06T14:49:25.322Z,18.87
2019-03-06T14:52:06.869Z,20.40
2019-03-06T14:54:31.602Z,18.25
2019-03-06T14:57:02.027Z,19.73
2019-03-06T14:59:33.402Z,23.27
2019-03-06T15:02:06.153Z,22.48
2019-03-06T15:04:36.881Z,20.97
2019-03-06T15:07:10.102Z,29.23
2019-03-06T15:09:41.421Z,34.50
2019-03-06T15:12:11.843Z,32.85
2019-03-06T15:14:57.096Z,40.65
2019-03-06T15:17:29.803Z,32.55
2019-03-06T15:20:00.639Z,39.53
2019-03-06T15:22:38.417Z,27.93
2019-03-06T15:25:03.428Z,34.55
2019-03-06T15:27:34.369Z,44.60
2019-03-06T15:30:09.011Z,37.15
2019-03-06T15:32:42.099Z,38.48
2019-03-06T15:35:13.175Z,31.27
2019-03-06T15:37:43.748Z,51.28
2019-03-06T15:40:27.610Z,54.40
2019-03-06T15:42:59.448Z,42.17
2019-03-06T15:45:33.591Z,46.80
2019-03-06T15:48:04.910Z,40.50
2019-03-06T15:50:37.788Z,44.53
2019-03-06T15:53:09.485Z,55.75
2019-03-06T15:55:41.811Z,31.45
2019-03-06T15:58:12.745Z,40.10
2019-03-06T16:00:46.490Z,32.67
2019-03-06T16:03:16.060Z,43.35
2019-03-06T16:05:47.298Z,48.55
2019-03-06T16:08:18.043Z,45.98
2019-03-06T16:10:50.572Z,44.65
2019-03-06T16:13:21.239Z,52.75
2019-03-06T16:15:53.920Z,39.85
2019-03-06T16:18:24.206Z,53.65
2019-03-06T16:20:56.507Z,52.38
2019-03-06T16:23:27.670Z,50.12
2019-03-06T16:26:00.529Z,63.40
2019-03-06T16:28:31.265Z,58.40
2019-03-06T16:31:02.511Z,55.73
2019-03-06T16:33:34.167Z,64.03
2019-03-06T16:36:04.694Z,89.28
2019-03-06T16:38:36.457Z,59.08
2019-03-06T16:41:07.690Z,63.30
2019-03-06T16:43:38.792Z,54.77
2019-03-06T16:46:09.732Z,50.90
2019-03-06T16:48:41.780Z,46.18
2019-03-06T16:51:13.690Z,52.90
2019-03-06T16:53:48.122Z,47.30
2019-03-06T16:56:18.540Z,49.63
2019-03-06T16:58:51.130Z,50.98
2019-03-06T17:01:22.157Z,41.25
2019-03-06T17:03:52.690Z,42.38
2019-03-06T17:06:24.235Z,36.10
2019-03-06T17:08:55.551Z,37.80
2019-03-06T17:11:28.568Z,35.60
2019-03-06T17:13:59.710Z,48.65
2019-03-06T17:16:30.961Z,44.15
2019-03-06T17:19:01.896Z,54.50
2019-03-06T17:21:33.348Z,75.78
2019-03-06T17:24:04.894Z,75.15
2019-03-06T17:26:36.279Z,63.45
2019-03-06T17:29:11.646Z,73.37
2019-03-06T17:31:42.808Z,71.55
2019-03-06T17:34:15.605Z,84.83
2019-03-06T17:36:45.952Z,74.27
2019-03-06T17:39:18.090Z,72.40
2019-03-06T17:41:51.034Z,74.97
2019-03-06T17:44:22.218Z,79.70
2019-03-06T17:46:52.734Z,79.07
2019-03-06T17:49:24.002Z,76.35
2019-03-06T17:51:55.616Z,72.17
2019-03-06T17:54:27.104Z,78.60
2019-03-06T17:56:59.567Z,52.78
2019-03-06T17:59:32.229Z,58.38
2019-03-06T18:02:04.573Z,61.45
2019-03-06T18:04:35.965Z,56.40
2019-03-06T18:07:11.406Z,59.53
2019-03-06T18:09:42.041Z,63.40
2019-03-06T18:12:13.082Z,67.62
2019-03-06T18:14:43.809Z,70.25
2019-03-06T18:17:14.200Z,74.85
2019-03-06T18:19:46.501Z,89.42
2019-03-06T18:22:19.388Z,71.60
2019-03-06T18:24:50.221Z,99.40
2019-03-06T18:27:26.592Z,92.05
2019-03-06T18:29:57.011Z,91.37
2019-03-06T18:32:27.436Z,102.25
2019-03-06T18:34:58.884Z,101.72
2019-03-06T18:37:31.602Z,103.30
2019-03-06T18:40:02.602Z,108.03
2019-03-06T18:42:34.658Z,129.78
2019-03-06T18:45:11.439Z,128.50
2019-03-06T18:47:43.095Z,116.95
2019-03-06T18:50:21.933Z,114.90
2019-03-06T18:52:52.277Z,108.45
2019-03-06T18:55:22.914Z,107.10
2019-03-06T18:57:53.605Z,94.62
2019-03-06T19:00:25.897Z,71.47
2019-03-06T19:02:57.114Z,81.95
2019-03-06T19:05:27.500Z,74.42
2019-03-06T19:07:58.167Z,84.15
2019-03-06T19:10:29.730Z,70.50
2019-03-06T19:13:01.323Z,65.00
2019-03-06T19:15:31.696Z,60.67
2019-03-06T19:18:03.658Z,58.00
2019-03-06T19:20:35.380Z,53.33
2019-03-06T19:23:05.656Z,54.23
2019-03-06T19:25:36.471Z,58.33
2019-03-06T19:28:08.027Z,69.58
2019-03-06T19:30:38.445Z,78.30
2019-03-06T19:33:10.511Z,75.25
2019-03-06T19:35:41.147Z,84.70
2019-03-06T19:38:12.897Z,84.55
2019-03-06T19:40:44.244Z,88.65
2019-03-06T19:43:14.883Z,72.55
2019-03-06T19:45:45.815Z,59.13
2019-03-06T19:48:16.647Z,48.50
2019-03-06T19:50:47.691Z,54.75
2019-03-06T19:53:18.322Z,44.85
2019-03-06T19:55:48.847Z,43.95
2019-03-06T19:58:19.457Z,45.40
2019-03-06T20:00:52.512Z,35.48
2019-03-06T20:03:23.191Z,35.38
2019-03-06T20:05:53.619Z,35.30
2019-03-06T20:08:26.486Z,31.05
2019-03-06T20:10:57.437Z,35.83
2019-03-06T20:13:31.129Z,35.08
2019-03-06T20:16:01.466Z,41.92
2019-03-06T20:18:32.544Z,38.33
2019-03-06T20:21:03.231Z,31.68
2019-03-06T20:23:34.471Z,33.28
2019-03-06T20:26:13.862Z,50.00
2019-03-06T20:28:38.067Z,40.33
2019-03-06T20:31:09.339Z,39.60
2019-03-06T20:33:39.765Z,38.33
2019-03-06T20:36:10.461Z,36.30
2019-03-06T20:38:41.335Z,34.85
2019-03-06T20:41:12.513Z,39.08
2019-03-06T20:43:43.434Z,32.63
2019-03-06T20:46:14.144Z,42.17
2019-03-06T20:48:44.875Z,39.25
2019-03-06T20:51:15.915Z,46.15
2019-03-06T20:53:46.854Z,44.48
2019-03-06T20:56:17.445Z,40.70
2019-03-06T20:58:48.214Z,40.60
2019-03-06T21:01:19.158Z,34.23
2019-03-06T21:03:50.386Z,51.95
2019-03-06T21:06:20.773Z,47.88
2019-03-06T21:08:52.046Z,38.10
2019-03-06T21:11:22.698Z,42.17
2019-03-06T21:13:53.356Z,39.90
2019-03-06T21:16:24.267Z,47.55
2019-03-06T21:18:54.998Z,39.80
2019-03-06T21:21:26.446Z,45.05
2019-03-06T21:23:57.084Z,44.33
2019-03-06T21:26:27.812Z,38.40
2019-03-06T21:28:58.240Z,34.30
2019-03-06T21:31:28.855Z,37.50
2019-03-06T21:33:59.696Z,44.42
2019-03-06T21:36:30.431Z,36.50
2019-03-06T21:39:01.063Z,33.75
2019-03-06T21:41:31.897Z,35.75
2019-03-06T21:44:04.373Z,38.13
2019-03-06T21:46:34.905Z,40.83
2019-03-06T21:49:05.634Z,30.15
2019-03-06T21:51:36.260Z,30.23
2019-03-06T21:54:06.893Z,31.12
2019-03-06T21:56:38.750Z,36.75
2019-03-06T21:59:09.378Z,33.02
2019-03-06T22:01:40.007Z,26.48
2019-03-06T22:04:10.743Z,34.85
2019-03-06T22:06:42.644Z,27.42
2019-03-06T22:09:14.486Z,20.15
2019-03-06T22:11:44.884Z,26.73
2019-03-06T22:14:15.720Z,21.80
2019-03-06T22:16:46.144Z,24.57
2019-03-06T22:19:18.104Z,22.87
2019-03-06T22:21:49.251Z,16.93
2019-03-06T22:24:19.572Z,22.02
2019-03-06T22:26:50.815Z,22.00
2019-03-06T22:29:21.553Z,21.75
2019-03-06T22:31:52.279Z,17.20
2019-03-06T22:34:24.551Z,24.65
2019-03-06T22:36:55.893Z,17.90
2019-03-06T22:39:27.036Z,20.60
2019-03-06T22:41:57.461Z,22.25
2019-03-06T22:44:28.093Z,18.42
2019-03-06T22:46:58.825Z,20.20
2019-03-06T22:49:29.763Z,18.82
2019-03-06T22:52:00.277Z,18.85
2019-03-06T22:54:33.720Z,22.42
2019-03-06T22:57:04.418Z,23.15
2019-03-06T22:59:36.371Z,18.90
2019-03-06T23:02:06.910Z,29.40
2019-03-06T23:04:37.461Z,21.10
2019-03-06T23:07:08.063Z,20.80
2019-03-06T23:09:39.717Z,25.48
2019-03-06T23:12:10.040Z,20.20
2019-03-06T23:14:41.288Z,22.17
2019-03-06T23:17:11.797Z,30.35
2019-03-06T23:19:42.364Z,23.75
2019-03-06T23:22:13.073Z,22.42
2019-03-06T23:24:44.459Z,22.62
2019-03-06T23:27:15.057Z,25.52
2019-03-06T23:29:46.498Z,21.05
2019-03-06T23:32:16.924Z,24.63
2019-03-06T23:34:47.864Z,25.20
2019-03-06T23:37:18.598Z,19.42
2019-03-06T23:39:49.233Z,20.40
2019-03-06T23:42:20.118Z,22.85
2019-03-06T23:44:50.794Z,21.30
2019-03-06T23:47:21.630Z,23.27
2019-03-06T23:49:52.166Z,20.05
2019-03-06T23:52:24.453Z,20.27
2019-03-06T23:54:55.163Z,22.90
2019-03-06T23:57:26.299Z,22.65
2019-03-06T23:59:56.816Z,24.90
